createdAt,value
2023-01-26T00:04:47.928Z,37.17
2023-01-26T00:09:51.050Z,37.50
2023-01-26T00:14:55.530Z,36.58
2023-01-26T00:19:59.364Z,34.17
2023-01-26T00:25:02.548Z,33.53
2023-01-26T00:30:07.733Z,35.63
2023-01-26T00:35:11.045Z,36.63
2023-01-26T00:40:14.196Z,34.97
2023-01-26T00:45:18.688Z,35.45
2023-01-26T00:50:21.871Z,34.95
2023-01-26T00:55:32.269Z,33.53
2023-01-26T01:00:38.867Z,35.55
2023-01-26T01:05:42.103Z,36.25
2023-01-26T01:10:45.316Z,37.67
2023-01-26T01:15:49.798Z,36.33
2023-01-26T01:20:52.978Z,36.28
2023-01-26T01:25:59.303Z,37.42
2023-01-26T01:31:06.729Z,34.47
2023-01-26T01:36:11.433Z,33.47
2023-01-26T01:41:15.295Z,33.58
2023-01-26T01:46:28.354Z,33.05
2023-01-26T01:51:33.974Z,34.42
2023-01-26T01:56:38.848Z,29.42
2023-01-26T02:01:43.593Z,31.45
2023-01-26T02:06:48.402Z,29.88
2023-01-26T02:11:51.716Z,29.50
2023-01-26T02:16:56.291Z,29.23
2023-01-26T02:22:03.452Z,29.55
2023-01-26T02:27:10.012Z,29.13
2023-01-26T02:32:13.210Z,30.83
2023-01-26T02:37:16.511Z,26.58
2023-01-26T02:42:38.607Z,26.67
2023-01-26T02:47:44.875Z,28.10
2023-01-26T02:52:48.380Z,26.92
2023-01-26T02:57:56.940Z,24.67
2023-01-26T03:03:01.763Z,25.85
2023-01-26T03:08:06.820Z,25.30
2023-01-26T03:13:14.148Z,27.77
2023-01-26T03:18:35.342Z,27.20
2023-01-26T03:23:56.157Z,27.00
2023-01-26T03:29:02.266Z,25.48
2023-01-26T03:34:05.848Z,27.10
2023-01-26T03:39:09.319Z,26.65
2023-01-26T03:44:31.661Z,25.63
2023-01-26T03:49:53.784Z,23.60
2023-01-26T03:55:14.720Z,24.83
2023-01-26T04:00:21.607Z,24.98
2023-01-26T04:05:45.181Z,23.00
2023-01-26T04:10:51.150Z,22.38
2023-01-26T04:16:13.041Z,23.02
2023-01-26T04:21:29.927Z,21.83
2023-01-26T04:26:35.719Z,22.73
2023-01-26T04:31:43.405Z,21.10
2023-01-26T04:36:46.945Z,20.90
2023-01-26T04:41:52.055Z,20.80
2023-01-26T04:46:57.944Z,20.90
2023-01-26T04:52:01.148Z,20.52
2023-01-26T04:57:05.680Z,21.67
2023-01-26T05:02:11.983Z,21.83
2023-01-26T05:07:15.376Z,19.67
2023-01-26T05:12:36.276Z,21.65
2023-01-26T05:18:06.831Z,19.90
2023-01-26T05:23:24.733Z,20.55
2023-01-26T05:28:50.463Z,22.42
2023-01-26T05:33:55.064Z,22.58
2023-01-26T05:39:00.155Z,21.98
2023-01-26T05:44:04.028Z,23.40
2023-01-26T05:49:14.100Z,21.63
2023-01-26T05:54:17.740Z,20.52
2023-01-26T05:59:20.923Z,21.27
2023-01-26T06:04:25.649Z,21.58
2023-01-26T06:09:33.175Z,20.80
2023-01-26T06:14:58.495Z,18.20
2023-01-26T06:20:14.649Z,18.65
2023-01-26T06:25:21.185Z,22.27
2023-01-26T06:30:24.388Z,19.73
2023-01-26T06:35:29.317Z,18.65
2023-01-26T06:40:36.062Z,20.58
2023-01-26T06:45:39.963Z,19.80
2023-01-26T06:50:45.820Z,21.10
2023-01-26T06:55:49.365Z,20.63
2023-01-26T07:01:11.013Z,20.92
2023-01-26T07:06:15.879Z,19.45
2023-01-26T07:11:20.155Z,20.88
2023-01-26T07:16:23.380Z,22.63
2023-01-26T07:21:28.141Z,21.30
2023-01-26T07:26:31.271Z,22.50
2023-01-26T07:31:34.367Z,19.35
2023-01-26T07:36:39.074Z,21.55
2023-01-26T07:41:42.437Z,23.48
2023-01-26T07:47:04.165Z,22.35
2023-01-26T07:52:09.250Z,21.80
2023-01-26T07:57:13.268Z,24.75
2023-01-26T08:02:16.621Z,21.52
2023-01-26T08:07:21.258Z,22.55
2023-01-26T08:12:24.553Z,21.33
2023-01-26T08:17:29.551Z,23.35
2023-01-26T08:22:34.205Z,22.02
2023-01-26T08:27:37.449Z,21.52
2023-01-26T08:32:40.533Z,20.70
2023-01-26T08:37:45.162Z,21.67
2023-01-26T08:42:48.368Z,21.58
2023-01-26T08:47:52.442Z,23.38
2023-01-26T08:53:00.042Z,20.50
2023-01-26T08:58:03.442Z,22.48
2023-01-26T09:03:07.403Z,20.77
2023-01-26T09:08:14.695Z,20.98
2023-01-26T09:13:18.007Z,20.33
2023-01-26T09:18:21.374Z,20.15
2023-01-26T09:23:26.145Z,20.38
2023-01-26T09:28:29.655Z,22.92
2023-01-26T09:33:33.065Z,21.88
2023-01-26T09:38:37.603Z,24.27
2023-01-26T09:43:43.793Z,23.05
2023-01-26T09:48:51.708Z,23.25
2023-01-26T09:53:59.707Z,23.20
2023-01-26T09:59:06.653Z,22.95
2023-01-26T10:04:13.555Z,23.00
2023-01-26T10:09:20.559Z,22.83
2023-01-26T10:14:30.626Z,23.15
2023-01-26T10:19:35.928Z,22.17
2023-01-26T10:24:40.914Z,21.20
2023-01-26T10:29:44.197Z,27.15
2023-01-26T10:34:49.440Z,19.58
2023-01-26T10:40:01.998Z,19.13
2023-01-26T10:45:07.048Z,19.10
2023-01-26T10:50:22.877Z,18.48
2023-01-26T10:55:28.183Z,19.42
2023-01-26T11:00:33.392Z,18.15
2023-01-26T11:05:36.820Z,21.13
2023-01-26T11:10:52.276Z,16.33
2023-01-26T11:16:04.195Z,15.88
2023-01-26T11:21:10.296Z,16.33
2023-01-26T11:26:34.239Z,17.63
2023-01-26T11:31:47.075Z,13.95
2023-01-26T11:36:53.770Z,12.35
2023-01-26T11:42:05.592Z,11.10
2023-01-26T11:47:15.190Z,10.73
2023-01-26T11:52:24.882Z,10.43
2023-01-26T11:57:33.325Z,9.18
2023-01-26T12:02:38.547Z,9.68
2023-01-26T12:07:54.751Z,9.80
2023-01-26T12:13:02.398Z,8.50
2023-01-26T12:18:15.733Z,9.23
2023-01-26T12:23:26.670Z,8.07
2023-01-26T12:28:32.705Z,7.07
2023-01-26T12:33:37.653Z,7.55
2023-01-26T12:38:44.493Z,6.40
2023-01-26T12:43:54.539Z,17.90
2023-01-26T12:49:02.998Z,6.20
2023-01-26T12:54:09.936Z,5.30
2023-01-26T12:59:39.530Z,5.00
2023-01-26T13:04:41.440Z,5.75
2023-01-26T13:10:09.366Z,4.28
2023-01-26T13:15:14.951Z,3.95
2023-01-26T13:20:27.505Z,3.85
2023-01-26T13:25:34.940Z,9.32
2023-01-26T13:30:44.565Z,4.35
2023-01-26T13:35:49.524Z,3.45
2023-01-26T13:40:53.031Z,3.22
2023-01-26T13:46:00.138Z,3.20
2023-01-26T13:51:05.363Z,2.70
2023-01-26T13:56:20.663Z,3.13
2023-01-26T14:01:23.749Z,3.00
2023-01-26T14:06:29.613Z,4.15
2023-01-26T14:11:34.684Z,3.20
2023-01-26T14:16:38.719Z,3.08
2023-01-26T14:21:50.578Z,2.63
2023-01-26T14:26:54.109Z,2.22
2023-01-26T14:31:58.348Z,2.03
2023-01-26T14:37:13.256Z,2.70
2023-01-26T14:42:18.837Z,2.63
2023-01-26T14:47:23.654Z,1.90
2023-01-26T14:52:29.743Z,1.80
2023-01-26T14:57:33.084Z,1.55
2023-01-26T15:02:37.552Z,1.45
2023-01-26T15:07:45.219Z,1.63
2023-01-26T15:12:48.752Z,10.63
2023-01-26T15:18:01.591Z,2.72
2023-01-26T15:23:17.826Z,1.73
2023-01-26T15:28:23.654Z,1.73
2023-01-26T15:33:40.175Z,1.33
2023-01-26T15:38:44.948Z,1.35
2023-01-26T15:43:48.344Z,1.73
2023-01-26T15:48:51.504Z,1.70
2023-01-26T15:53:56.119Z,1.83
2023-01-26T15:58:59.556Z,47.20
2023-01-26T16:04:02.985Z,3.13
2023-01-26T16:09:07.676Z,3.25
2023-01-26T16:14:12.527Z,2.38
2023-01-26T16:19:34.386Z,1.90
2023-01-26T16:24:39.848Z,1.92
2023-01-26T16:29:43.264Z,3.55
2023-01-26T16:34:46.627Z,1.88
2023-01-26T16:39:51.520Z,2.78
2023-01-26T16:44:54.897Z,2.15
2023-01-26T16:49:58.431Z,3.13
2023-01-26T16:55:04.203Z,2.42
2023-01-26T17:00:08.281Z,2.17
2023-01-26T17:05:14.543Z,1.58
2023-01-26T17:10:22.721Z,1.45
2023-01-26T17:15:25.835Z,1.50
2023-01-26T17:20:29.255Z,1.70
2023-01-26T17:25:33.951Z,2.17
2023-01-26T17:30:38.412Z,12.68
2023-01-26T17:35:41.756Z,1.48
2023-01-26T17:40:46.456Z,1.67
2023-01-26T17:45:49.560Z,1.33
2023-01-26T17:50:54.595Z,1.30
2023-01-26T17:56:00.690Z,2.22
2023-01-26T18:01:04.369Z,2.00
2023-01-26T18:06:07.797Z,1.25
2023-01-26T18:11:13.297Z,1.40
2023-01-26T18:16:17.901Z,4.80
2023-01-26T18:21:22.696Z,2.05
2023-01-26T18:26:28.135Z,2.05
2023-01-26T18:31:32.261Z,1.77
2023-01-26T18:36:35.848Z,1.80
2023-01-26T18:41:43.275Z,49.03
2023-01-26T18:46:46.678Z,3.13
2023-01-26T18:51:50.248Z,2.30
2023-01-26T18:56:54.799Z,1.85
2023-01-26T19:01:58.325Z,2.17
2023-01-26T19:07:01.678Z,2.47
2023-01-26T19:12:07.149Z,1.52
2023-01-26T19:17:10.532Z,2.47
2023-01-26T19:22:13.732Z,2.42
2023-01-26T19:27:18.667Z,1.98
2023-01-26T19:32:21.859Z,2.30
2023-01-26T19:37:25.202Z,2.08
2023-01-26T19:42:29.984Z,2.28
2023-01-26T19:47:33.102Z,2.55
2023-01-26T19:52:36.483Z,1.92
2023-01-26T19:57:41.143Z,2.63
2023-01-26T20:02:44.371Z,2.67
2023-01-26T20:07:47.561Z,2.42
2023-01-26T20:12:53.333Z,3.33
2023-01-26T20:17:56.848Z,2.85
2023-01-26T20:23:00.363Z,2.83
2023-01-26T20:28:04.995Z,1.85
2023-01-26T20:33:08.445Z,2.35
2023-01-26T20:38:12.140Z,3.22
2023-01-26T20:43:16.933Z,2.20
2023-01-26T20:48:20.147Z,2.30
2023-01-26T20:53:23.560Z,2.30
2023-01-26T20:58:28.128Z,2.10
2023-01-26T21:03:31.465Z,2.25
2023-01-26T21:08:34.875Z,2.40
2023-01-26T21:13:41.363Z,2.70
2023-01-26T21:18:45.643Z,2.13
2023-01-26T21:23:49.397Z,28.55
2023-01-26T21:28:54.948Z,2.58
2023-01-26T21:33:58.572Z,2.20
2023-01-26T21:39:02.164Z,2.35
2023-01-26T21:44:07.642Z,2.50
2023-01-26T21:49:11.028Z,2.45
2023-01-26T21:54:14.858Z,2.70
2023-01-26T21:59:19.883Z,2.85
2023-01-26T22:04:24.021Z,2.63
2023-01-26T22:09:27.385Z,2.58
2023-01-26T22:14:32.043Z,2.85
2023-01-26T22:19:35.588Z,2.97
2023-01-26T22:24:38.722Z,4.80
2023-01-26T22:29:43.177Z,2.70
2023-01-26T22:34:46.397Z,3.95
2023-01-26T22:39:49.765Z,2.63
2023-01-26T22:44:54.202Z,2.30
2023-01-26T22:49:57.352Z,3.33
2023-01-26T22:55:00.546Z,2.40
2023-01-26T23:00:06.109Z,3.38
2023-01-26T23:05:09.438Z,3.60
2023-01-26T23:10:12.932Z,3.10
2023-01-26T23:15:17.748Z,3.42
2023-01-26T23:20:22.259Z,2.95
2023-01-26T23:25:42.834Z,3.25
2023-01-26T23:30:47.343Z,2.65
2023-01-26T23:35:50.688Z,2.95
2023-01-26T23:40:54.114Z,2.90
2023-01-26T23:45:58.773Z,3.83
2023-01-26T23:51:02.949Z,3.88
2023-01-26T23:56:07.293Z,3.72
